createdAt,value
2023-04-18T00:00:12.340Z,101013.00
2023-04-18T00:02:40.305Z,101005.88
2023-04-18T00:05:08.734Z,101013.22
2023-04-18T00:07:36.069Z,101008.78
2023-04-18T00:10:06.019Z,101000.84
2023-04-18T00:12:34.448Z,101007.19
2023-04-18T00:15:02.397Z,100997.59
2023-04-18T00:17:31.960Z,100997.72
2023-04-18T00:20:02.401Z,100991.59
2023-04-18T00:22:30.659Z,100994.41
2023-04-18T00:24:57.721Z,100991.06
2023-04-18T00:27:24.650Z,100984.94
2023-04-18T00:29:51.726Z,100986.66
2023-04-18T00:32:19.757Z,100985.78
2023-04-18T00:34:46.932Z,100984.94
2023-04-18T00:37:13.880Z,100990.31
2023-04-18T00:39:42.399Z,100991.50
2023-04-18T00:42:09.416Z,100988.03
2023-04-18T00:44:36.395Z,100980.09
2023-04-18T00:47:03.508Z,100983.00
2023-04-18T00:49:30.867Z,100985.78
2023-04-18T00:51:58.841Z,100987.81
2023-04-18T00:54:27.960Z,100986.31
2023-04-18T00:56:55.462Z,100974.09
2023-04-18T00:59:23.236Z,100978.69
2023-04-18T01:01:50.476Z,100983.28
2023-04-18T01:04:17.816Z,100978.13
2023-04-18T01:06:45.794Z,100986.31
2023-04-18T01:09:14.131Z,100986.41
2023-04-18T01:11:41.394Z,100990.13
2023-04-18T01:14:10.056Z,100985.84
2023-04-18T01:16:37.220Z,100981.53
2023-04-18T01:19:05.897Z,100981.53
2023-04-18T01:21:36.163Z,100979.06
2023-04-18T01:24:12.553Z,100981.72
2023-04-18T01:26:45.956Z,100981.84
2023-04-18T01:29:14.111Z,100982.72
2023-04-18T01:31:42.427Z,100971.97
2023-04-18T01:34:09.735Z,100974.75
2023-04-18T01:36:39.639Z,100966.03
2023-04-18T01:39:07.257Z,100971.41
2023-04-18T01:41:34.286Z,100961.84
2023-04-18T01:44:01.723Z,100963.03
2023-04-18T01:46:29.452Z,100960.44
2023-04-18T01:48:57.897Z,100963.25
2023-04-18T01:51:26.430Z,100963.31
2023-04-18T01:53:54.117Z,100964.50
2023-04-18T01:56:21.190Z,100952.28
2023-04-18T01:58:48.356Z,100956.88
2023-04-18T02:01:15.583Z,100949.88
2023-04-18T02:03:43.212Z,100954.31
2023-04-18T02:06:11.086Z,100951.69
2023-04-18T02:08:38.738Z,100950.84
2023-04-18T02:11:06.077Z,100948.09
2023-04-18T02:13:33.198Z,100950.75
2023-04-18T02:16:00.324Z,100953.44
2023-04-18T02:18:27.939Z,100941.94
2023-04-18T02:20:55.025Z,100947.44
2023-04-18T02:23:22.574Z,100941.28
2023-04-18T02:25:50.839Z,100947.63
2023-04-18T02:28:18.119Z,100946.00
2023-04-18T02:30:45.329Z,100952.31
2023-04-18T02:33:12.302Z,100956.16
2023-04-18T02:35:39.336Z,100958.97
2023-04-18T02:38:06.456Z,100966.25
2023-04-18T02:40:33.690Z,100964.53
2023-04-18T02:43:02.121Z,100953.34
2023-04-18T02:45:29.633Z,100956.63
2023-04-18T02:47:59.721Z,100962.59
2023-04-18T02:50:27.163Z,100958.41
2023-04-18T02:52:56.208Z,100958.59
2023-04-18T02:55:28.248Z,100970.28
2023-04-18T02:57:59.117Z,100966.72
2023-04-18T03:00:44.593Z,100969.41
2023-04-18T03:03:41.187Z,100965.97
2023-04-18T03:06:27.506Z,100964.66
2023-04-18T03:08:56.267Z,100961.41
2023-04-18T03:11:24.880Z,100964.19
2023-04-18T03:13:54.030Z,100957.22
2023-04-18T03:16:22.993Z,100966.09
2023-04-18T03:18:50.306Z,100959.78
2023-04-18T03:21:18.421Z,100963.44
2023-04-18T03:23:45.616Z,100958.91
2023-04-18T03:26:13.993Z,100950.03
2023-04-18T03:28:42.782Z,100956.56
2023-04-18T03:31:10.537Z,100956.63
2023-04-18T03:33:42.423Z,100959.44
2023-04-18T03:36:12.378Z,100965.63
2023-04-18T03:38:40.712Z,100965.06
2023-04-18T03:41:08.795Z,100962.38
2023-04-18T03:43:37.757Z,100960.56
2023-04-18T03:46:05.485Z,100958.75
2023-04-18T03:48:35.892Z,100954.25
2023-04-18T03:51:07.200Z,100959.97
2023-04-18T03:53:35.069Z,100962.72
2023-04-18T03:56:02.323Z,100966.56
2023-04-18T03:59:02.522Z,100957.00
2023-04-18T04:01:31.014Z,100960.75
2023-04-18T04:03:58.519Z,100962.75
2023-04-18T04:06:26.517Z,100957.09
2023-04-18T04:08:55.802Z,100958.06
2023-04-18T04:11:26.054Z,100951.88
2023-04-18T04:13:53.397Z,100952.59
2023-04-18T04:16:25.150Z,100955.28
2023-04-18T04:18:54.792Z,100958.94
2023-04-18T04:21:27.174Z,100966.13
2023-04-18T04:23:54.220Z,100960.84
2023-04-18T04:26:36.120Z,100967.16
2023-04-18T04:29:10.906Z,100965.44
2023-04-18T04:31:39.682Z,100976.91
2023-04-18T04:34:07.106Z,100974.16
2023-04-18T04:36:35.025Z,100979.41
2023-04-18T04:39:05.453Z,100985.59
2023-04-18T04:41:42.164Z,100972.31
2023-04-18T04:44:10.079Z,100986.47
2023-04-18T04:46:39.595Z,100977.69
2023-04-18T04:49:12.343Z,100979.59
2023-04-18T04:51:40.224Z,100981.50
2023-04-18T04:54:07.347Z,100979.09
2023-04-18T04:56:34.749Z,100982.81
2023-04-18T04:59:02.493Z,100984.56
2023-04-18T05:01:40.919Z,100984.63
2023-04-18T05:04:08.653Z,100976.59
2023-04-18T05:06:37.883Z,100976.59
2023-04-18T05:09:06.413Z,100980.25
2023-04-18T05:11:39.751Z,100983.78
2023-04-18T05:14:06.796Z,100987.44
2023-04-18T05:16:34.166Z,100985.50
2023-04-18T05:19:01.470Z,100990.78
2023-04-18T05:21:29.512Z,100987.91
2023-04-18T05:23:56.456Z,100994.00
2023-04-18T05:26:24.591Z,100993.94
2023-04-18T05:28:51.773Z,100992.22
2023-04-18T05:31:18.968Z,100992.31
2023-04-18T05:33:46.070Z,101005.63
2023-04-18T05:36:13.571Z,101002.81
2023-04-18T05:38:40.737Z,101013.25
2023-04-18T05:41:07.876Z,101009.63
2023-04-18T05:43:35.323Z,101013.84
2023-04-18T05:46:03.361Z,101021.69
2023-04-18T05:48:30.708Z,101018.72
2023-04-18T05:50:58.086Z,101028.31
2023-04-18T05:53:25.283Z,101031.53
2023-04-18T05:55:52.267Z,101041.06
2023-04-18T05:58:19.599Z,101037.13
2023-04-18T06:00:48.346Z,101039.63
2023-04-18T06:03:16.163Z,101041.16
2023-04-18T06:05:43.764Z,101039.13
2023-04-18T06:08:10.907Z,101039.81
2023-04-18T06:10:39.262Z,101036.84
2023-04-18T06:13:06.423Z,101042.00
2023-04-18T06:15:35.461Z,101040.19
2023-04-18T06:18:02.537Z,101042.56
2023-04-18T06:20:29.672Z,101033.47
2023-04-18T06:22:56.694Z,101038.66
2023-04-18T06:25:24.944Z,101048.31
2023-04-18T06:27:51.986Z,101054.34
2023-04-18T06:30:22.020Z,101046.00
2023-04-18T06:32:49.584Z,101050.19
2023-04-18T06:35:16.921Z,101058.03
2023-04-18T06:37:44.981Z,101056.91
2023-04-18T06:40:12.652Z,101058.41
2023-04-18T06:42:39.938Z,101056.47
2023-04-18T06:45:07.921Z,101054.38
2023-04-18T06:50:02.146Z,101057.97
2023-04-18T06:52:29.230Z,101052.28
2023-04-18T06:54:56.267Z,101052.88
2023-04-18T06:57:23.579Z,101053.31
2023-04-18T06:59:50.902Z,101052.78
2023-04-18T07:02:17.949Z,101054.13
2023-04-18T07:04:45.203Z,101046.59
2023-04-18T07:07:12.319Z,101054.28
2023-04-18T07:09:39.522Z,101052.25
2023-04-18T07:12:06.838Z,101052.06
2023-04-18T07:14:34.283Z,101050.88
2023-04-18T07:17:02.182Z,101055.81
2023-04-18T07:19:29.334Z,101052.00
2023-04-18T07:21:56.699Z,101059.72
2023-04-18T07:24:24.013Z,101062.97
2023-04-18T07:26:54.801Z,101060.94
2023-04-18T07:29:22.254Z,101063.41
2023-04-18T07:31:49.946Z,101062.22
2023-04-18T07:34:17.904Z,101061.78
2023-04-18T07:36:45.104Z,101065.13
2023-04-18T07:39:12.173Z,101063.72
2023-04-18T07:41:39.143Z,101070.59
2023-04-18T07:44:07.573Z,101071.16
2023-04-18T07:46:34.976Z,101067.28
2023-04-18T07:49:02.519Z,101067.06
2023-04-18T07:51:32.447Z,101064.78
2023-04-18T07:53:59.815Z,101063.59
2023-04-18T07:56:28.113Z,101064.03
2023-04-18T07:58:55.740Z,101064.44
2023-04-18T08:01:24.337Z,101065.00
2023-04-18T08:03:53.627Z,101066.47
2023-04-18T08:06:21.502Z,101062.53
2023-04-18T08:08:49.039Z,101065.84
2023-04-18T08:11:16.618Z,101065.41
2023-04-18T08:13:43.760Z,101068.66
2023-04-18T08:16:11.133Z,101073.47
2023-04-18T08:18:38.398Z,101066.78
2023-04-18T08:21:05.635Z,101068.13
2023-04-18T08:23:32.727Z,101066.84
2023-04-18T08:25:59.853Z,101064.69
2023-04-18T08:28:26.963Z,101075.84
2023-04-18T08:30:55.339Z,101071.94
2023-04-18T08:33:24.078Z,101065.97
2023-04-18T08:35:51.936Z,101072.75
2023-04-18T08:38:19.396Z,101071.31
2023-04-18T08:40:47.202Z,101072.69
2023-04-18T08:43:15.788Z,101083.00
2023-04-18T08:45:44.709Z,101078.09
2023-04-18T08:48:14.112Z,101074.97
2023-04-18T08:50:42.385Z,101079.88
2023-04-18T08:53:10.674Z,101086.69
2023-04-18T08:55:37.951Z,101088.91
2023-04-18T08:58:06.958Z,101088.31
2023-04-18T09:00:34.298Z,101078.03
2023-04-18T09:03:03.812Z,101078.19
2023-04-18T09:05:32.525Z,101082.13
2023-04-18T09:08:02.039Z,101083.34
2023-04-18T09:10:34.508Z,101082.63
2023-04-18T09:13:04.429Z,101073.19
2023-04-18T09:15:31.976Z,101075.78
2023-04-18T09:18:03.230Z,101074.94
2023-04-18T09:20:41.439Z,101074.06
2023-04-18T09:23:14.589Z,101074.69
2023-04-18T09:25:44.382Z,101071.50
2023-04-18T09:28:31.903Z,101071.63
2023-04-18T09:31:15.639Z,101078.38
2023-04-18T09:33:56.971Z,101071.97
2023-04-18T09:36:31.182Z,101078.00
2023-04-18T09:38:58.868Z,101075.41
2023-04-18T09:41:27.121Z,101072.56
2023-04-18T09:44:14.641Z,101066.19
2023-04-18T09:46:46.165Z,101069.72
2023-04-18T09:49:14.912Z,101067.13
2023-04-18T09:51:44.675Z,101070.41
2023-04-18T09:54:16.215Z,101068.16
2023-04-18T09:56:46.152Z,101061.28
2023-04-18T09:59:18.660Z,101061.75
2023-04-18T10:01:49.824Z,101059.13
2023-04-18T10:04:18.388Z,101065.00
2023-04-18T10:06:46.524Z,101058.25
2023-04-18T10:09:16.095Z,101062.84
2023-04-18T10:11:44.641Z,101057.19
2023-04-18T10:14:14.218Z,101051.13
2023-04-18T10:16:43.078Z,101048.75
2023-04-18T10:19:30.400Z,101049.72
2023-04-18T10:22:01.046Z,101050.94
2023-04-18T10:24:53.602Z,101046.13
2023-04-18T10:27:48.750Z,101049.84
2023-04-18T10:30:17.205Z,101037.38
2023-04-18T10:32:46.946Z,101044.06
2023-04-18T10:35:14.227Z,101032.16
2023-04-18T10:37:51.865Z,101031.78
2023-04-18T10:40:34.125Z,101028.81
2023-04-18T10:43:01.730Z,101025.63
2023-04-18T10:45:32.605Z,101036.56
2023-04-18T10:48:24.669Z,101021.81
2023-04-18T10:51:20.927Z,101027.66
2023-04-18T10:54:00.463Z,101021.81
2023-04-18T10:56:29.115Z,101021.41
2023-04-18T10:59:03.378Z,101017.41
2023-04-18T11:01:33.140Z,101016.44
2023-04-18T11:04:01.496Z,101005.75
2023-04-18T11:06:30.422Z,101009.31
2023-04-18T11:09:12.101Z,101004.63
2023-04-18T11:11:41.016Z,101004.06
2023-04-18T11:14:08.432Z,101005.19
2023-04-18T11:16:36.552Z,101007.91
2023-04-18T11:19:22.016Z,100996.91
2023-04-18T11:21:49.665Z,100998.34
2023-04-18T11:24:26.663Z,101000.75
2023-04-18T11:26:56.099Z,101000.41
2023-04-18T11:29:23.512Z,100997.13
2023-04-18T11:31:55.275Z,100994.25
2023-04-18T11:34:30.676Z,100993.25
2023-04-18T11:36:58.219Z,100996.50
2023-04-18T11:39:25.670Z,100992.94
2023-04-18T11:41:55.003Z,100992.69
2023-04-18T11:44:26.943Z,100991.38
2023-04-18T11:46:54.182Z,100987.53
2023-04-18T11:49:29.000Z,100993.41
2023-04-18T11:51:56.484Z,100987.25
2023-04-18T11:54:45.446Z,100999.22
2023-04-18T11:57:39.082Z,100988.03
2023-04-18T12:00:08.958Z,100983.00
2023-04-18T12:02:59.430Z,100996.47
2023-04-18T12:05:38.181Z,100992.84
2023-04-18T12:08:20.036Z,100987.69
2023-04-18T12:10:50.853Z,100986.53
2023-04-18T12:13:19.600Z,100981.44
2023-04-18T12:15:47.184Z,100984.44
2023-04-18T12:18:18.295Z,100982.38
2023-04-18T12:20:54.552Z,100980.75
2023-04-18T12:23:40.366Z,100977.66
2023-04-18T12:26:18.813Z,100982.69
2023-04-18T12:28:48.113Z,100974.72
2023-04-18T12:31:15.699Z,100975.31
2023-04-18T12:33:43.219Z,100977.06
2023-04-18T12:36:10.524Z,100985.41
2023-04-18T12:38:37.623Z,100981.53
2023-04-18T12:41:05.598Z,100976.72
2023-04-18T12:43:32.804Z,100974.69
2023-04-18T12:46:00.383Z,100977.88
2023-04-18T12:48:27.432Z,100973.50
2023-04-18T12:50:54.451Z,100979.53
2023-04-18T12:53:21.510Z,100974.16
2023-04-18T12:55:48.465Z,100975.06
2023-04-18T12:58:18.699Z,100974.13
2023-04-18T13:00:46.247Z,100973.50
2023-04-18T13:03:13.654Z,100973.97
2023-04-18T13:05:41.130Z,100971.69
2023-04-18T13:08:17.079Z,100970.88
2023-04-18T13:10:47.636Z,100970.25
2023-04-18T13:13:14.902Z,100971.78
2023-04-18T13:15:42.619Z,100969.28
2023-04-18T13:18:09.672Z,100968.38
2023-04-18T13:20:36.745Z,100964.50
2023-04-18T13:23:04.045Z,100974.81
2023-04-18T13:25:31.516Z,100966.66
2023-04-18T13:28:00.746Z,100967.56
2023-04-18T13:30:28.661Z,100964.19
2023-04-18T13:32:56.844Z,100966.41
2023-04-18T13:35:23.946Z,100970.66
2023-04-18T13:37:50.956Z,100964.13
2023-04-18T13:40:18.168Z,100961.41
2023-04-18T13:42:45.334Z,100959.44
2023-04-18T13:45:12.540Z,100952.00
2023-04-18T13:47:39.796Z,100952.91
2023-04-18T13:50:09.051Z,100950.84
2023-04-18T13:52:36.487Z,100950.69
2023-04-18T13:55:04.106Z,100948.34
2023-04-18T13:57:32.359Z,100944.28
2023-04-18T13:59:59.580Z,100947.19
2023-04-18T14:02:26.903Z,100950.59
2023-04-18T14:04:55.141Z,100944.94
2023-04-18T14:07:22.428Z,100952.47
2023-04-18T14:09:50.821Z,100953.84
2023-04-18T14:12:18.771Z,100948.91
2023-04-18T14:14:45.840Z,100962.88
2023-04-18T14:17:12.891Z,100957.72
2023-04-18T14:19:39.973Z,100955.69
2023-04-18T14:22:07.927Z,100967.41
2023-04-18T14:24:37.740Z,100968.13
2023-04-18T14:27:04.926Z,100970.81
2023-04-18T14:29:32.140Z,100977.91
2023-04-18T14:31:59.572Z,100978.88
2023-04-18T14:34:26.806Z,100975.41
2023-04-18T14:36:53.829Z,100977.44
2023-04-18T14:39:21.510Z,100972.63
2023-04-18T14:41:48.619Z,100975.69
2023-04-18T14:44:15.735Z,100973.44
2023-04-18T14:46:43.315Z,100980.59
2023-04-18T14:49:10.345Z,100978.56
2023-04-18T14:51:37.411Z,100975.84
2023-04-18T14:54:04.591Z,100973.28
2023-04-18T14:56:31.796Z,100975.47
2023-04-18T14:58:58.812Z,100975.28
2023-04-18T15:01:26.324Z,100978.63
2023-04-18T15:03:53.903Z,100973.88
2023-04-18T15:06:21.273Z,100979.94
2023-04-18T15:08:48.690Z,100985.72
2023-04-18T15:11:15.957Z,100987.47
2023-04-18T15:13:43.049Z,100981.66
2023-04-18T15:16:10.214Z,100976.50
2023-04-18T15:18:37.269Z,100976.84
2023-04-18T15:21:04.605Z,100976.78
2023-04-18T15:23:32.143Z,100980.66
2023-04-18T15:25:59.467Z,100977.41
2023-04-18T15:28:26.577Z,100985.50
2023-04-18T15:30:54.215Z,100984.06
2023-04-18T15:33:21.831Z,100989.50
2023-04-18T15:35:48.858Z,100979.97
2023-04-18T15:38:15.810Z,100983.84
2023-04-18T15:40:43.606Z,100985.72
2023-04-18T15:43:10.800Z,100981.28
2023-04-18T15:45:37.834Z,100987.75
2023-04-18T15:48:05.022Z,100989.72
2023-04-18T15:50:33.613Z,100983.44
2023-04-18T15:53:00.843Z,100985.44
2023-04-18T15:55:28.554Z,100983.75
2023-04-18T15:57:56.111Z,100987.31
2023-04-18T16:00:24.028Z,100988.34
2023-04-18T16:02:51.483Z,100989.50
2023-04-18T16:05:19.060Z,100989.94
2023-04-18T16:07:46.151Z,100986.53
2023-04-18T16:10:15.338Z,100990.56
2023-04-18T16:12:43.085Z,100991.88
2023-04-18T16:15:11.197Z,100995.59
2023-04-18T16:17:38.736Z,100994.88
2023-04-18T16:20:08.581Z,100995.19
2023-04-18T16:22:37.019Z,100991.78
2023-04-18T16:25:05.196Z,100989.38
2023-04-18T16:27:33.154Z,100989.81
2023-04-18T16:30:02.097Z,100984.84
2023-04-18T16:32:30.760Z,100997.88
2023-04-18T16:34:58.214Z,100992.91
2023-04-18T16:37:25.400Z,100994.38
2023-04-18T16:39:52.613Z,100992.97
2023-04-18T16:42:19.811Z,100990.69
2023-04-18T16:44:47.347Z,101002.00
2023-04-18T16:47:14.422Z,100997.00
2023-04-18T16:49:43.534Z,100999.34
2023-04-18T16:52:10.553Z,100995.31
2023-04-18T16:54:37.607Z,100993.06
2023-04-18T16:57:05.230Z,100988.22
2023-04-18T16:59:32.421Z,100991.38
2023-04-18T17:01:59.740Z,100990.13
2023-04-18T17:04:27.206Z,100996.16
2023-04-18T17:06:54.340Z,100994.69
2023-04-18T17:09:22.047Z,100988.03
2023-04-18T17:11:49.938Z,100994.16
2023-04-18T17:14:18.341Z,100994.47
2023-04-18T17:16:45.967Z,100990.50
2023-04-18T17:19:13.378Z,100997.19
2023-04-18T17:21:40.709Z,100997.75
2023-04-18T17:24:08.124Z,100999.22
2023-04-18T17:26:37.906Z,101002.63
2023-04-18T17:29:04.994Z,101001.63
2023-04-18T17:31:32.837Z,101005.03
2023-04-18T17:34:00.396Z,100999.47
2023-04-18T17:36:27.865Z,101002.75
2023-04-18T17:38:55.481Z,101009.47
2023-04-18T17:41:22.778Z,101004.44
2023-04-18T17:43:53.598Z,101008.44
2023-04-18T17:46:20.658Z,101008.72
2023-04-18T17:48:47.707Z,101013.56
2023-04-18T17:51:16.474Z,101002.16
2023-04-18T17:53:46.940Z,101012.53
2023-04-18T17:56:13.906Z,101012.97
2023-04-18T17:58:41.225Z,101008.84
2023-04-18T18:01:19.603Z,101017.38
2023-04-18T18:03:48.241Z,101016.06
2023-04-18T18:06:15.891Z,101019.19
2023-04-18T18:08:43.561Z,101023.19
2023-04-18T18:11:10.801Z,101025.56
2023-04-18T18:13:39.163Z,101028.66
2023-04-18T18:16:07.611Z,101025.50
2023-04-18T18:18:35.399Z,101025.19
2023-04-18T18:21:02.615Z,101030.31
2023-04-18T18:23:29.550Z,101036.25
2023-04-18T18:25:56.507Z,101036.53
2023-04-18T18:28:23.495Z,101041.47
2023-04-18T18:30:50.823Z,101054.56
2023-04-18T18:33:18.115Z,101053.22
2023-04-18T18:35:45.010Z,101055.47
2023-04-18T18:38:12.031Z,101055.13
2023-04-18T18:40:39.300Z,101057.50
2023-04-18T18:43:06.419Z,101067.88
2023-04-18T18:45:33.784Z,101061.88
2023-04-18T18:48:00.852Z,101078.47
2023-04-18T18:50:27.941Z,101077.28
2023-04-18T18:52:55.011Z,101073.22
2023-04-18T18:55:22.375Z,101090.44
2023-04-18T18:57:49.806Z,101078.19
2023-04-18T19:00:17.548Z,101076.00
2023-04-18T19:02:46.214Z,101090.59
2023-04-18T19:05:13.368Z,101089.16
2023-04-18T19:07:43.557Z,101092.97
2023-04-18T19:10:11.309Z,101095.06
2023-04-18T19:12:38.563Z,101098.03
2023-04-18T19:15:06.812Z,101100.00
2023-04-18T19:17:34.088Z,101100.25
2023-04-18T19:20:01.583Z,101110.44
2023-04-18T19:22:29.838Z,101106.19
2023-04-18T19:24:57.420Z,101100.28
2023-04-18T19:27:24.389Z,101107.78
2023-04-18T19:29:51.479Z,101115.13
2023-04-18T19:32:18.472Z,101113.69
2023-04-18T19:34:45.721Z,101111.38
2023-04-18T19:37:12.768Z,101115.41
2023-04-18T19:39:39.701Z,101119.22
2023-04-18T19:42:07.456Z,101124.00
2023-04-18T19:44:34.925Z,101122.56
2023-04-18T19:47:01.911Z,101126.34
2023-04-18T19:49:28.896Z,101121.19
2023-04-18T19:51:55.892Z,101129.53
2023-04-18T19:54:23.003Z,101125.25
2023-04-18T19:56:50.407Z,101127.22
2023-04-18T19:59:17.445Z,101139.97
2023-04-18T20:01:44.895Z,101137.38
2023-04-18T20:04:12.401Z,101140.19
2023-04-18T20:06:39.545Z,101142.13
2023-04-18T20:09:08.725Z,101137.72
2023-04-18T20:11:36.100Z,101141.53
2023-04-18T20:14:03.490Z,101137.25
2023-04-18T20:16:30.537Z,101150.00
2023-04-18T20:18:57.598Z,101144.94
2023-04-18T20:21:24.614Z,101147.91
2023-04-18T20:24:00.707Z,101146.06
2023-04-18T20:26:27.875Z,101152.66
2023-04-18T20:28:54.888Z,101152.91
2023-04-18T20:31:22.172Z,101151.31
2023-04-18T20:33:49.314Z,101150.56
2023-04-18T20:36:17.738Z,101148.88
2023-04-18T20:38:45.036Z,101159.91
2023-04-18T20:41:18.149Z,101154.75
2023-04-18T20:43:46.108Z,101159.50
2023-04-18T20:46:19.726Z,101160.59
2023-04-18T20:48:46.911Z,101160.84
2023-04-18T20:51:14.827Z,101161.09
2023-04-18T20:53:41.828Z,101163.03
2023-04-18T20:56:08.788Z,101160.59
2023-04-18T20:58:36.251Z,101167.78
2023-04-18T21:01:03.932Z,101171.63
2023-04-18T21:03:31.233Z,101177.09
2023-04-18T21:05:58.284Z,101176.34
2023-04-18T21:08:25.720Z,101182.72
2023-04-18T21:10:53.135Z,101182.00
2023-04-18T21:13:20.112Z,101185.66
2023-04-18T21:15:47.463Z,101189.44
2023-04-18T21:18:14.430Z,101192.28
2023-04-18T21:20:41.473Z,101187.97
2023-04-18T21:23:08.432Z,101195.44
2023-04-18T21:25:35.522Z,101190.28
2023-04-18T21:28:02.828Z,101196.03
2023-04-18T21:30:30.158Z,101201.50
2023-04-18T21:32:57.306Z,101203.72
2023-04-18T21:35:25.148Z,101207.34
2023-04-18T21:37:52.332Z,101209.41
2023-04-18T21:40:19.466Z,101212.47
2023-04-18T21:42:47.769Z,101211.91
2023-04-18T21:45:17.509Z,101219.38
2023-04-18T21:47:44.583Z,101221.56
2023-04-18T21:50:11.906Z,101217.34
2023-04-18T21:52:39.060Z,101220.38
2023-04-18T21:55:06.343Z,101216.06
2023-04-18T21:57:33.597Z,101213.59
2023-04-18T22:00:01.226Z,101217.38
2023-04-18T22:02:29.635Z,101217.72
2023-04-18T22:04:56.712Z,101216.25
2023-04-18T22:07:24.699Z,101214.84
2023-04-18T22:09:51.700Z,101213.34
2023-04-18T22:12:19.110Z,101221.66
2023-04-18T22:14:48.393Z,101219.19
2023-04-18T22:17:15.457Z,101218.53
2023-04-18T22:19:44.388Z,101224.22
2023-04-18T22:22:11.729Z,101224.44
2023-04-18T22:24:38.718Z,101221.03
2023-04-18T22:27:05.930Z,101223.81
2023-04-18T22:29:33.813Z,101223.94
2023-04-18T22:32:01.241Z,101222.31
2023-04-18T22:34:28.324Z,101219.97
2023-04-18T22:36:55.360Z,101220.19
2023-04-18T22:39:22.973Z,101225.78
2023-04-18T22:41:50.257Z,101226.09
2023-04-18T22:44:17.836Z,101228.03
2023-04-18T22:46:46.156Z,101234.50
2023-04-18T22:49:14.370Z,101232.00
2023-04-18T22:51:42.401Z,101233.00
2023-04-18T22:54:09.680Z,101239.31
2023-04-18T22:56:36.661Z,101239.44
2023-04-18T22:59:03.719Z,101241.28
2023-04-18T23:01:30.939Z,101235.13
2023-04-18T23:03:58.579Z,101245.03
2023-04-18T23:06:27.836Z,101237.81
2023-04-18T23:08:55.017Z,101249.66
2023-04-18T23:11:22.337Z,101243.41
2023-04-18T23:13:49.524Z,101246.88
2023-04-18T23:16:16.599Z,101248.69
2023-04-18T23:18:43.571Z,101244.28
2023-04-18T23:21:10.585Z,101242.69
2023-04-18T23:23:37.556Z,101251.47
2023-04-18T23:26:15.728Z,101250.75
2023-04-18T23:28:42.791Z,101244.66
2023-04-18T23:31:10.339Z,101242.94
2023-04-18T23:33:37.562Z,101248.31
2023-04-18T23:36:04.690Z,101249.38
2023-04-18T23:38:32.583Z,101247.56
2023-04-18T23:40:59.748Z,101243.38
2023-04-18T23:43:26.909Z,101250.69
2023-04-18T23:45:53.856Z,101249.94
2023-04-18T23:48:21.364Z,101250.00
2023-04-18T23:50:50.347Z,101243.78
2023-04-18T23:53:17.560Z,101244.75
2023-04-18T23:55:46.214Z,101255.50
2023-04-18T23:58:14.174Z,101250.13
